Sierraville, California
Current Conditions -  °F | °C
As of 12:45 PM on Sunday 23 Nov 2014 (Local Time) from KTRK Reporting Station
Overcast Overcast  
Wind Chill: 34°   Ceiling: 15000
Heat Index: 34°   Visibility: 10mi
Dew Point: 27°   Wind: 0mph
Humidity: 75%   Direction: NA
Pressure: 30.32"   Gusts: NA
Location:  39.59°N, 120.37°W
Report Text: KTRK 232045Z 00000KT 10SM OVC150 01/M03 A3032 RMK NOSEPCI
Loading
Personal Weather Stations






























Interactive Weather Map New forecast layout! Learn more

10-Day Weather Forecast

Advertisements
Track Severe Weather on mobile